sensor_id;sensor_type;location;lat;lon;timestamp;temperature;humidity
55785;DHT22;41709;52.536;5.688;2022-11-28T00:01:05;7.70;90.20
55785;DHT22;41709;52.536;5.688;2022-11-28T00:03:31;7.70;90.10
55785;DHT22;41709;52.536;5.688;2022-11-28T00:05:56;7.70;90.10
55785;DHT22;41709;52.536;5.688;2022-11-28T00:08:26;7.70;90.20
55785;DHT22;41709;52.536;5.688;2022-11-28T00:10:52;7.70;90.20
55785;DHT22;41709;52.536;5.688;2022-11-28T00:13:17;7.60;90.10
55785;DHT22;41709;52.536;5.688;2022-11-28T00:15:43;7.60;90.20
55785;DHT22;41709;52.536;5.688;2022-11-28T00:18:08;7.60;90.20
55785;DHT22;41709;52.536;5.688;2022-11-28T00:20:35;7.60;90.30
55785;DHT22;41709;52.536;5.688;2022-11-28T00:23:00;7.60;90.30
55785;DHT22;41709;52.536;5.688;2022-11-28T00:25:26;7.60;90.30
55785;DHT22;41709;52.536;5.688;2022-11-28T00:27:51;7.60;90.40
55785;DHT22;41709;52.536;5.688;2022-11-28T00:30:17;7.60;90.40
55785;DHT22;41709;52.536;5.688;2022-11-28T00:32:42;7.60;90.40
55785;DHT22;41709;52.536;5.688;2022-11-28T00:35:08;7.60;90.40
55785;DHT22;41709;52.536;5.688;2022-11-28T00:37:34;7.60;90.40
55785;DHT22;41709;52.536;5.688;2022-11-28T00:39:59;7.60;90.50
55785;DHT22;41709;52.536;5.688;2022-11-28T00:42:25;7.60;90.50
55785;DHT22;41709;52.536;5.688;2022-11-28T00:44:50;7.60;90.50
55785;DHT22;41709;52.536;5.688;2022-11-28T00:47:16;7.70;90.50
55785;DHT22;41709;52.536;5.688;2022-11-28T00:49:41;7.70;90.50
55785;DHT22;41709;52.536;5.688;2022-11-28T00:52:07;7.70;90.60
55785;DHT22;41709;52.536;5.688;2022-11-28T00:54:33;7.70;90.60
55785;DHT22;41709;52.536;5.688;2022-11-28T00:56:59;7.70;90.70
55785;DHT22;41709;52.536;5.688;2022-11-28T00:59:24;7.70;90.70
55785;DHT22;41709;52.536;5.688;2022-11-28T01:01:50;7.70;90.70
55785;DHT22;41709;52.536;5.688;2022-11-28T01:04:16;7.70;90.80
55785;DHT22;41709;52.536;5.688;2022-11-28T01:06:44;7.70;90.80
55785;DHT22;41709;52.536;5.688;2022-11-28T01:09:13;7.70;90.80
55785;DHT22;41709;52.536;5.688;2022-11-28T01:11:40;7.70;90.80
55785;DHT22;41709;52.536;5.688;2022-11-28T01:14:07;7.70;90.80
55785;DHT22;41709;52.536;5.688;2022-11-28T01:16:33;7.70;90.80
55785;DHT22;41709;52.536;5.688;2022-11-28T01:18:58;7.90;90.90
55785;DHT22;41709;52.536;5.688;2022-11-28T01:21:24;7.80;90.90
55785;DHT22;41709;52.536;5.688;2022-11-28T01:23:50;7.80;90.90
55785;DHT22;41709;52.536;5.688;2022-11-28T01:26:18;7.80;90.90
55785;DHT22;41709;52.536;5.688;2022-11-28T01:28:45;7.80;90.90
55785;DHT22;41709;52.536;5.688;2022-11-28T01:31:13;7.80;90.90
55785;DHT22;41709;52.536;5.688;2022-11-28T01:33:39;7.80;90.90
55785;DHT22;41709;52.536;5.688;2022-11-28T01:36:05;7.80;90.90
55785;DHT22;41709;52.536;5.688;2022-11-28T01:38:32;7.80;90.90
55785;DHT22;41709;52.536;5.688;2022-11-28T01:40:58;7.80;90.90
55785;DHT22;41709;52.536;5.688;2022-11-28T01:43:24;7.80;90.90
55785;DHT22;41709;52.536;5.688;2022-11-28T01:45:50;7.90;90.90
55785;DHT22;41709;52.536;5.688;2022-11-28T01:48:28;7.80;90.90
55785;DHT22;41709;52.536;5.688;2022-11-28T01:50:58;7.80;90.90
55785;DHT22;41709;52.536;5.688;2022-11-28T01:53:28;7.80;90.90
55785;DHT22;41709;52.536;5.688;2022-11-28T01:55:58;7.80;90.90
55785;DHT22;41709;52.536;5.688;2022-11-28T01:58:26;7.80;90.90
55785;DHT22;41709;52.536;5.688;2022-11-28T02:00:52;7.80;91.00
55785;DHT22;41709;52.536;5.688;2022-11-28T02:03:29;7.80;91.00
55785;DHT22;41709;52.536;5.688;2022-11-28T02:05:57;7.80;90.90
55785;DHT22;41709;52.536;5.688;2022-11-28T02:08:23;7.90;91.20
55785;DHT22;41709;52.536;5.688;2022-11-28T02:16:51;7.80;91.00
55785;DHT22;41709;52.536;5.688;2022-11-28T02:22:09;7.90;91.10
55785;DHT22;41709;52.536;5.688;2022-11-28T02:25:06;7.80;91.10
55785;DHT22;41709;52.536;5.688;2022-11-28T02:33:34;7.90;91.20
55785;DHT22;41709;52.536;5.688;2022-11-28T02:44:15;7.90;91.30
55785;DHT22;41709;52.536;5.688;2022-11-28T02:49:25;7.90;91.30
55785;DHT22;41709;52.536;5.688;2022-11-28T02:51:54;7.90;91.30
55785;DHT22;41709;52.536;5.688;2022-11-28T02:54:22;7.90;91.30
55785;DHT22;41709;52.536;5.688;2022-11-28T02:56:51;7.90;91.40
55785;DHT22;41709;52.536;5.688;2022-11-28T03:02:01;8.00;91.50
55785;DHT22;41709;52.536;5.688;2022-11-28T03:04:35;8.00;91.50
55785;DHT22;41709;52.536;5.688;2022-11-28T03:07:33;8.00;91.50
55785;DHT22;41709;52.536;5.688;2022-11-28T03:15:22;8.00;91.60
55785;DHT22;41709;52.536;5.688;2022-11-28T03:18:06;8.10;91.60
55785;DHT22;41709;52.536;5.688;2022-11-28T03:20:46;8.10;91.60
55785;DHT22;41709;52.536;5.688;2022-11-28T03:31:06;8.10;91.70
55785;DHT22;41709;52.536;5.688;2022-11-28T03:33:37;8.10;91.70
55785;DHT22;41709;52.536;5.688;2022-11-28T03:36:10;8.10;91.70
55785;DHT22;41709;52.536;5.688;2022-11-28T03:38:42;8.10;91.80
55785;DHT22;41709;52.536;5.688;2022-11-28T03:41:17;8.10;91.80
55785;DHT22;41709;52.536;5.688;2022-11-28T03:43:49;8.20;91.90
55785;DHT22;41709;52.536;5.688;2022-11-28T03:46:18;8.20;91.90
55785;DHT22;41709;52.536;5.688;2022-11-28T03:48:47;8.20;91.90
55785;DHT22;41709;52.536;5.688;2022-11-28T03:51:26;8.20;91.90
55785;DHT22;41709;52.536;5.688;2022-11-28T03:54:00;8.20;91.90
55785;DHT22;41709;52.536;5.688;2022-11-28T03:56:47;8.20;91.90
55785;DHT22;41709;52.536;5.688;2022-11-28T03:59:19;8.20;91.90
55785;DHT22;41709;52.536;5.688;2022-11-28T04:02:42;8.30;91.90
55785;DHT22;41709;52.536;5.688;2022-11-28T04:04:56;8.30;91.90
55785;DHT22;41709;52.536;5.688;2022-11-28T04:10:19;8.30;92.00
55785;DHT22;41709;52.536;5.688;2022-11-28T04:12:53;8.30;91.90
55785;DHT22;41709;52.536;5.688;2022-11-28T04:15:26;8.30;92.00
55785;DHT22;41709;52.536;5.688;2022-11-28T04:18:07;8.30;92.00
55785;DHT22;41709;52.536;5.688;2022-11-28T04:20:44;8.30;92.00
55785;DHT22;41709;52.536;5.688;2022-11-28T04:23:14;8.30;92.00
55785;DHT22;41709;52.536;5.688;2022-11-28T04:25:46;8.30;92.00
55785;DHT22;41709;52.536;5.688;2022-11-28T04:28:19;8.40;92.00
55785;DHT22;41709;52.536;5.688;2022-11-28T04:30:46;8.30;92.00
55785;DHT22;41709;52.536;5.688;2022-11-28T04:33:13;8.30;91.90
55785;DHT22;41709;52.536;5.688;2022-11-28T04:35:44;8.30;91.90
55785;DHT22;41709;52.536;5.688;2022-11-28T04:38:11;8.30;92.00
55785;DHT22;41709;52.536;5.688;2022-11-28T04:40:43;8.30;92.10
55785;DHT22;41709;52.536;5.688;2022-11-28T04:43:17;8.40;92.00
55785;DHT22;41709;52.536;5.688;2022-11-28T04:45:53;8.30;92.00
55785;DHT22;41709;52.536;5.688;2022-11-28T04:48:21;8.30;91.90
55785;DHT22;41709;52.536;5.688;2022-11-28T04:54:05;8.30;92.00
55785;DHT22;41709;52.536;5.688;2022-11-28T04:59:39;8.30;92.00
55785;DHT22;41709;52.536;5.688;2022-11-28T05:02:06;8.30;92.00
55785;DHT22;41709;52.536;5.688;2022-11-28T05:04:34;8.30;92.10
55785;DHT22;41709;52.536;5.688;2022-11-28T05:07:03;8.30;92.00
55785;DHT22;41709;52.536;5.688;2022-11-28T05:09:28;8.30;92.00
55785;DHT22;41709;52.536;5.688;2022-11-28T05:11:54;8.30;92.00
55785;DHT22;41709;52.536;5.688;2022-11-28T05:14:21;8.40;92.10
55785;DHT22;41709;52.536;5.688;2022-11-28T05:16:46;8.30;92.00
55785;DHT22;41709;52.536;5.688;2022-11-28T05:19:12;8.30;92.00
55785;DHT22;41709;52.536;5.688;2022-11-28T05:21:38;8.30;92.10
55785;DHT22;41709;52.536;5.688;2022-11-28T05:24:03;8.30;92.00
55785;DHT22;41709;52.536;5.688;2022-11-28T05:26:29;8.30;92.00
55785;DHT22;41709;52.536;5.688;2022-11-28T05:28:58;8.30;92.00
55785;DHT22;41709;52.536;5.688;2022-11-28T05:31:24;8.30;92.10
55785;DHT22;41709;52.536;5.688;2022-11-28T05:33:50;8.30;92.00
55785;DHT22;41709;52.536;5.688;2022-11-28T05:36:16;8.30;92.10
55785;DHT22;41709;52.536;5.688;2022-11-28T05:38:42;8.30;92.40
55785;DHT22;41709;52.536;5.688;2022-11-28T05:41:09;8.30;92.10
55785;DHT22;41709;52.536;5.688;2022-11-28T05:43:35;8.30;92.10
55785;DHT22;41709;52.536;5.688;2022-11-28T05:46:04;8.30;92.00
55785;DHT22;41709;52.536;5.688;2022-11-28T05:48:30;8.30;92.00
55785;DHT22;41709;52.536;5.688;2022-11-28T05:50:55;8.40;92.00
55785;DHT22;41709;52.536;5.688;2022-11-28T05:53:21;8.40;92.00
55785;DHT22;41709;52.536;5.688;2022-11-28T05:55:47;8.40;91.90
55785;DHT22;41709;52.536;5.688;2022-11-28T05:58:12;8.40;91.90
55785;DHT22;41709;52.536;5.688;2022-11-28T06:00:38;8.30;91.80
55785;DHT22;41709;52.536;5.688;2022-11-28T06:03:04;8.40;92.00
55785;DHT22;41709;52.536;5.688;2022-11-28T06:05:30;8.40;92.00
55785;DHT22;41709;52.536;5.688;2022-11-28T06:07:55;8.30;91.90
55785;DHT22;41709;52.536;5.688;2022-11-28T06:10:21;8.30;91.90
55785;DHT22;41709;52.536;5.688;2022-11-28T06:12:47;8.30;92.00
55785;DHT22;41709;52.536;5.688;2022-11-28T06:15:13;8.30;92.00
55785;DHT22;41709;52.536;5.688;2022-11-28T06:17:38;8.30;92.00
55785;DHT22;41709;52.536;5.688;2022-11-28T06:20:05;8.30;92.10
55785;DHT22;41709;52.536;5.688;2022-11-28T06:22:32;8.30;92.00
55785;DHT22;41709;52.536;5.688;2022-11-28T06:24:57;8.30;92.00
55785;DHT22;41709;52.536;5.688;2022-11-28T06:27:23;8.30;92.10
55785;DHT22;41709;52.536;5.688;2022-11-28T06:29:48;8.30;92.10
55785;DHT22;41709;52.536;5.688;2022-11-28T06:32:14;8.30;92.10
55785;DHT22;41709;52.536;5.688;2022-11-28T06:34:40;8.20;92.10
55785;DHT22;41709;52.536;5.688;2022-11-28T06:37:05;8.30;92.10
55785;DHT22;41709;52.536;5.688;2022-11-28T06:39:31;8.20;92.10
55785;DHT22;41709;52.536;5.688;2022-11-28T06:41:56;8.20;92.10
55785;DHT22;41709;52.536;5.688;2022-11-28T06:44:22;8.20;92.20
55785;DHT22;41709;52.536;5.688;2022-11-28T06:46:48;8.20;92.30
55785;DHT22;41709;52.536;5.688;2022-11-28T06:49:13;8.20;92.40
55785;DHT22;41709;52.536;5.688;2022-11-28T06:51:40;8.20;92.30
55785;DHT22;41709;52.536;5.688;2022-11-28T06:54:06;8.20;92.40
55785;DHT22;41709;52.536;5.688;2022-11-28T06:56:32;8.20;92.40
55785;DHT22;41709;52.536;5.688;2022-11-28T06:58:59;8.20;92.30
55785;DHT22;41709;52.536;5.688;2022-11-28T07:01:28;8.20;92.30
55785;DHT22;41709;52.536;5.688;2022-11-28T07:03:54;8.10;92.40
55785;DHT22;41709;52.536;5.688;2022-11-28T07:06:20;8.20;92.40
55785;DHT22;41709;52.536;5.688;2022-11-28T07:08:46;8.20;92.40
55785;DHT22;41709;52.536;5.688;2022-11-28T07:11:16;8.20;92.40
55785;DHT22;41709;52.536;5.688;2022-11-28T07:13:42;8.20;92.30
55785;DHT22;41709;52.536;5.688;2022-11-28T07:16:14;8.30;92.40
55785;DHT22;41709;52.536;5.688;2022-11-28T07:18:40;8.20;92.30
55785;DHT22;41709;52.536;5.688;2022-11-28T07:21:05;8.20;92.40
55785;DHT22;41709;52.536;5.688;2022-11-28T07:23:31;8.20;92.40
55785;DHT22;41709;52.536;5.688;2022-11-28T07:26:00;8.20;92.40
55785;DHT22;41709;52.536;5.688;2022-11-28T07:28:28;8.20;92.30
55785;DHT22;41709;52.536;5.688;2022-11-28T07:31:08;8.20;92.30
55785;DHT22;41709;52.536;5.688;2022-11-28T07:33:36;8.20;92.30
55785;DHT22;41709;52.536;5.688;2022-11-28T07:36:04;8.20;92.30
55785;DHT22;41709;52.536;5.688;2022-11-28T07:38:30;8.20;92.30
55785;DHT22;41709;52.536;5.688;2022-11-28T07:43:29;8.30;92.30
55785;DHT22;41709;52.536;5.688;2022-11-28T07:45:54;8.30;92.30
55785;DHT22;41709;52.536;5.688;2022-11-28T07:48:20;8.30;92.30
55785;DHT22;41709;52.536;5.688;2022-11-28T07:50:46;8.30;92.30
55785;DHT22;41709;52.536;5.688;2022-11-28T07:53:12;8.20;92.30
55785;DHT22;41709;52.536;5.688;2022-11-28T07:55:37;8.30;92.70
55785;DHT22;41709;52.536;5.688;2022-11-28T07:58:03;8.30;92.30
55785;DHT22;41709;52.536;5.688;2022-11-28T08:00:28;8.30;92.30
55785;DHT22;41709;52.536;5.688;2022-11-28T08:02:54;8.40;92.20
55785;DHT22;41709;52.536;5.688;2022-11-28T08:05:19;8.40;92.20
55785;DHT22;41709;52.536;5.688;2022-11-28T08:07:48;8.40;92.20
55785;DHT22;41709;52.536;5.688;2022-11-28T08:10:13;8.40;92.10
55785;DHT22;41709;52.536;5.688;2022-11-28T08:12:39;8.40;92.10
55785;DHT22;41709;52.536;5.688;2022-11-28T08:15:04;8.40;92.10
55785;DHT22;41709;52.536;5.688;2022-11-28T08:17:30;8.40;92.10
55785;DHT22;41709;52.536;5.688;2022-11-28T08:19:57;8.50;92.10
55785;DHT22;41709;52.536;5.688;2022-11-28T08:22:23;8.50;92.10
55785;DHT22;41709;52.536;5.688;2022-11-28T08:24:48;8.50;92.00
55785;DHT22;41709;52.536;5.688;2022-11-28T08:27:14;8.50;91.90
55785;DHT22;41709;52.536;5.688;2022-11-28T08:29:39;8.50;92.00
55785;DHT22;41709;52.536;5.688;2022-11-28T08:32:05;8.50;92.00
55785;DHT22;41709;52.536;5.688;2022-11-28T08:34:30;8.40;92.00
55785;DHT22;41709;52.536;5.688;2022-11-28T08:36:56;8.50;92.00
55785;DHT22;41709;52.536;5.688;2022-11-28T08:39:21;8.50;92.10
55785;DHT22;41709;52.536;5.688;2022-11-28T08:41:47;8.50;92.10
55785;DHT22;41709;52.536;5.688;2022-11-28T08:44:14;8.50;92.00
55785;DHT22;41709;52.536;5.688;2022-11-28T08:46:39;8.50;92.10
55785;DHT22;41709;52.536;5.688;2022-11-28T08:49:05;8.50;92.10
55785;DHT22;41709;52.536;5.688;2022-11-28T08:51:31;8.50;92.10
55785;DHT22;41709;52.536;5.688;2022-11-28T08:53:57;8.50;92.10
55785;DHT22;41709;52.536;5.688;2022-11-28T08:56:23;8.60;92.10
55785;DHT22;41709;52.536;5.688;2022-11-28T08:58:49;8.60;92.10
55785;DHT22;41709;52.536;5.688;2022-11-28T09:01:19;8.60;92.10
55785;DHT22;41709;52.536;5.688;2022-11-28T09:03:46;8.60;92.00
55785;DHT22;41709;52.536;5.688;2022-11-28T09:06:13;8.60;92.00
55785;DHT22;41709;52.536;5.688;2022-11-28T09:08:39;8.60;92.00
55785;DHT22;41709;52.536;5.688;2022-11-28T09:11:10;8.70;92.00
55785;DHT22;41709;52.536;5.688;2022-11-28T09:13:36;8.60;91.90
55785;DHT22;41709;52.536;5.688;2022-11-28T09:16:02;8.70;92.00
55785;DHT22;41709;52.536;5.688;2022-11-28T09:18:28;8.70;91.90
55785;DHT22;41709;52.536;5.688;2022-11-28T09:21:02;8.70;91.90
55785;DHT22;41709;52.536;5.688;2022-11-28T09:23:28;8.80;91.90
55785;DHT22;41709;52.536;5.688;2022-11-28T09:25:54;8.80;91.90
55785;DHT22;41709;52.536;5.688;2022-11-28T09:28:20;8.80;91.90
55785;DHT22;41709;52.536;5.688;2022-11-28T09:30:45;8.80;91.90
55785;DHT22;41709;52.536;5.688;2022-11-28T09:33:11;8.80;91.90
55785;DHT22;41709;52.536;5.688;2022-11-28T09:35:38;8.80;91.90
55785;DHT22;41709;52.536;5.688;2022-11-28T09:38:04;8.80;91.90
55785;DHT22;41709;52.536;5.688;2022-11-28T09:40:38;8.80;91.90
55785;DHT22;41709;52.536;5.688;2022-11-28T09:43:22;8.80;91.90
55785;DHT22;41709;52.536;5.688;2022-11-28T09:45:51;8.80;91.90
55785;DHT22;41709;52.536;5.688;2022-11-28T09:48:25;8.80;91.90
55785;DHT22;41709;52.536;5.688;2022-11-28T09:50:59;8.90;91.90
55785;DHT22;41709;52.536;5.688;2022-11-28T09:53:55;8.90;91.90
55785;DHT22;41709;52.536;5.688;2022-11-28T09:56:22;8.90;92.00
55785;DHT22;41709;52.536;5.688;2022-11-28T10:01:28;9.00;91.90
55785;DHT22;41709;52.536;5.688;2022-11-28T10:04:08;9.00;91.90
55785;DHT22;41709;52.536;5.688;2022-11-28T10:20:45;9.10;91.90
55785;DHT22;41709;52.536;5.688;2022-11-28T10:23:21;9.10;91.80
55785;DHT22;41709;52.536;5.688;2022-11-28T10:25:50;9.10;91.80
55785;DHT22;41709;52.536;5.688;2022-11-28T10:28:45;9.10;91.90
55785;DHT22;41709;52.536;5.688;2022-11-28T10:31:35;9.10;91.90
55785;DHT22;41709;52.536;5.688;2022-11-28T10:34:15;9.10;91.80
55785;DHT22;41709;52.536;5.688;2022-11-28T10:37:06;9.10;91.80
55785;DHT22;41709;52.536;5.688;2022-11-28T10:39:41;9.10;91.80
55785;DHT22;41709;52.536;5.688;2022-11-28T10:45:23;9.20;91.90
55785;DHT22;41709;52.536;5.688;2022-11-28T10:51:24;9.20;91.90
55785;DHT22;41709;52.536;5.688;2022-11-28T10:53:59;9.20;91.80
55785;DHT22;41709;52.536;5.688;2022-11-28T11:01:40;9.20;91.80
55785;DHT22;41709;52.536;5.688;2022-11-28T11:04:19;9.30;91.80
55785;DHT22;41709;52.536;5.688;2022-11-28T11:07:07;9.30;91.80
55785;DHT22;41709;52.536;5.688;2022-11-28T11:09:34;9.30;91.80
55785;DHT22;41709;52.536;5.688;2022-11-28T11:12:00;9.30;91.80
55785;DHT22;41709;52.536;5.688;2022-11-28T11:14:34;9.30;91.70
55785;DHT22;41709;52.536;5.688;2022-11-28T11:17:00;9.30;91.50
55785;DHT22;41709;52.536;5.688;2022-11-28T11:22:05;9.30;91.70
55785;DHT22;41709;52.536;5.688;2022-11-28T11:24:32;9.30;91.70
55785;DHT22;41709;52.536;5.688;2022-11-28T11:27:11;9.30;91.80
55785;DHT22;41709;52.536;5.688;2022-11-28T11:29:39;9.20;91.90
55785;DHT22;41709;52.536;5.688;2022-11-28T11:32:16;9.20;91.90
55785;DHT22;41709;52.536;5.688;2022-11-28T11:34:44;9.20;92.00
55785;DHT22;41709;52.536;5.688;2022-11-28T11:37:22;9.30;92.00
55785;DHT22;41709;52.536;5.688;2022-11-28T11:39:54;9.30;92.00
55785;DHT22;41709;52.536;5.688;2022-11-28T11:42:28;9.30;92.00
55785;DHT22;41709;52.536;5.688;2022-11-28T11:44:54;9.30;92.20
55785;DHT22;41709;52.536;5.688;2022-11-28T11:47:39;9.30;91.90
55785;DHT22;41709;52.536;5.688;2022-11-28T11:50:06;9.40;92.00
55785;DHT22;41709;52.536;5.688;2022-11-28T11:52:39;9.30;91.90
55785;DHT22;41709;52.536;5.688;2022-11-28T11:55:14;9.40;91.90
55785;DHT22;41709;52.536;5.688;2022-11-28T11:57:45;9.40;91.90
55785;DHT22;41709;52.536;5.688;2022-11-28T12:00:25;9.40;91.80
55785;DHT22;41709;52.536;5.688;2022-11-28T12:02:59;9.40;91.80
55785;DHT22;41709;52.536;5.688;2022-11-28T12:08:24;9.40;92.00
55785;DHT22;41709;52.536;5.688;2022-11-28T12:13:51;9.40;92.10
55785;DHT22;41709;52.536;5.688;2022-11-28T12:16:39;9.40;92.00
55785;DHT22;41709;52.536;5.688;2022-11-28T12:30:20;9.40;92.00
55785;DHT22;41709;52.536;5.688;2022-11-28T12:49:40;9.50;92.10
55785;DHT22;41709;52.536;5.688;2022-11-28T12:52:28;9.50;92.10
55785;DHT22;41709;52.536;5.688;2022-11-28T12:58:10;9.50;92.10
55785;DHT22;41709;52.536;5.688;2022-11-28T13:01:03;9.50;92.10
55785;DHT22;41709;52.536;5.688;2022-11-28T13:14:54;9.60;92.20
55785;DHT22;41709;52.536;5.688;2022-11-28T13:17:33;9.60;92.20
55785;DHT22;41709;52.536;5.688;2022-11-28T13:20:12;9.60;92.30
55785;DHT22;41709;52.536;5.688;2022-11-28T13:22:56;9.70;92.30
55785;DHT22;41709;52.536;5.688;2022-11-28T13:26:18;9.70;92.20
55785;DHT22;41709;52.536;5.688;2022-11-28T13:28:29;9.80;92.20
55785;DHT22;41709;52.536;5.688;2022-11-28T13:31:22;9.80;92.10
55785;DHT22;41709;52.536;5.688;2022-11-28T13:33:51;9.80;92.10
55785;DHT22;41709;52.536;5.688;2022-11-28T13:36:38;9.80;92.20
55785;DHT22;41709;52.536;5.688;2022-11-28T13:45:00;9.90;92.00
55785;DHT22;41709;52.536;5.688;2022-11-28T13:47:33;9.80;92.10
55785;DHT22;41709;52.536;5.688;2022-11-28T13:53:00;9.90;92.20
55785;DHT22;41709;52.536;5.688;2022-11-28T13:55:44;9.90;92.10
55785;DHT22;41709;52.536;5.688;2022-11-28T13:58:25;9.90;92.10
55785;DHT22;41709;52.536;5.688;2022-11-28T14:01:00;9.90;92.10
55785;DHT22;41709;52.536;5.688;2022-11-28T14:03:26;9.90;92.00
55785;DHT22;41709;52.536;5.688;2022-11-28T14:05:56;9.90;92.00
55785;DHT22;41709;52.536;5.688;2022-11-28T14:08:34;9.90;91.90
55785;DHT22;41709;52.536;5.688;2022-11-28T14:11:17;9.90;91.90
55785;DHT22;41709;52.536;5.688;2022-11-28T14:14:04;9.90;91.90
55785;DHT22;41709;52.536;5.688;2022-11-28T14:16:49;9.90;92.10
55785;DHT22;41709;52.536;5.688;2022-11-28T14:19:47;9.90;92.10
55785;DHT22;41709;52.536;5.688;2022-11-28T14:25:07;9.90;92.10
55785;DHT22;41709;52.536;5.688;2022-11-28T14:27:37;10.00;92.10
55785;DHT22;41709;52.536;5.688;2022-11-28T14:30:04;10.00;92.00
55785;DHT22;41709;52.536;5.688;2022-11-28T14:32:34;10.00;92.00
55785;DHT22;41709;52.536;5.688;2022-11-28T14:35:01;10.00;92.00
55785;DHT22;41709;52.536;5.688;2022-11-28T14:39:55;10.00;92.10
55785;DHT22;41709;52.536;5.688;2022-11-28T14:44:50;10.00;92.00
55785;DHT22;41709;52.536;5.688;2022-11-28T14:47:32;9.90;92.00
55785;DHT22;41709;52.536;5.688;2022-11-28T14:52:40;9.90;92.10
55785;DHT22;41709;52.536;5.688;2022-11-28T14:57:39;9.90;92.10
55785;DHT22;41709;52.536;5.688;2022-11-28T15:00:56;9.90;92.20
55785;DHT22;41709;52.536;5.688;2022-11-28T15:03:13;9.90;92.20
55785;DHT22;41709;52.536;5.688;2022-11-28T15:05:53;9.90;92.30
55785;DHT22;41709;52.536;5.688;2022-11-28T15:14:08;9.90;92.20
55785;DHT22;41709;52.536;5.688;2022-11-28T15:16:35;9.90;92.30
55785;DHT22;41709;52.536;5.688;2022-11-28T15:19:14;9.90;92.50
55785;DHT22;41709;52.536;5.688;2022-11-28T15:21:43;10.00;92.30
55785;DHT22;41709;52.536;5.688;2022-11-28T15:24:30;10.00;92.10
55785;DHT22;41709;52.536;5.688;2022-11-28T15:29:33;10.00;92.10
55785;DHT22;41709;52.536;5.688;2022-11-28T15:31:59;10.10;92.10
55785;DHT22;41709;52.536;5.688;2022-11-28T15:34:32;10.10;92.10
55785;DHT22;41709;52.536;5.688;2022-11-28T15:37:00;10.10;92.20
55785;DHT22;41709;52.536;5.688;2022-11-28T15:39:29;10.10;92.10
55785;DHT22;41709;52.536;5.688;2022-11-28T15:41:57;10.20;92.10
55785;DHT22;41709;52.536;5.688;2022-11-28T15:44:25;10.20;92.10
55785;DHT22;41709;52.536;5.688;2022-11-28T15:46:51;10.20;92.00
55785;DHT22;41709;52.536;5.688;2022-11-28T15:49:27;10.20;91.90
55785;DHT22;41709;52.536;5.688;2022-11-28T15:51:56;10.30;91.80
55785;DHT22;41709;52.536;5.688;2022-11-28T15:54:35;10.30;91.70
55785;DHT22;41709;52.536;5.688;2022-11-28T15:57:02;10.30;91.70
55785;DHT22;41709;52.536;5.688;2022-11-28T15:59:28;10.30;91.70
55785;DHT22;41709;52.536;5.688;2022-11-28T16:01:58;10.30;91.60
55785;DHT22;41709;52.536;5.688;2022-11-28T16:04:24;10.30;91.60
55785;DHT22;41709;52.536;5.688;2022-11-28T16:06:52;10.30;91.60
55785;DHT22;41709;52.536;5.688;2022-11-28T16:11:46;10.30;91.50
55785;DHT22;41709;52.536;5.688;2022-11-28T16:14:22;10.30;91.50
55785;DHT22;41709;52.536;5.688;2022-11-28T16:16:49;10.30;91.40
55785;DHT22;41709;52.536;5.688;2022-11-28T16:22:16;10.30;91.40
55785;DHT22;41709;52.536;5.688;2022-11-28T16:24:48;10.30;91.50
55785;DHT22;41709;52.536;5.688;2022-11-28T16:27:37;10.40;91.40
55785;DHT22;41709;52.536;5.688;2022-11-28T16:30:27;10.30;91.30
55785;DHT22;41709;52.536;5.688;2022-11-28T16:32:56;10.30;91.30
55785;DHT22;41709;52.536;5.688;2022-11-28T16:35:28;10.30;91.20
55785;DHT22;41709;52.536;5.688;2022-11-28T16:38:15;10.30;91.20
55785;DHT22;41709;52.536;5.688;2022-11-28T16:40:42;10.20;91.20
55785;DHT22;41709;52.536;5.688;2022-11-28T16:43:27;10.30;91.20
55785;DHT22;41709;52.536;5.688;2022-11-28T16:45:58;10.30;91.20
55785;DHT22;41709;52.536;5.688;2022-11-28T16:48:26;10.20;91.00
55785;DHT22;41709;52.536;5.688;2022-11-28T16:53:54;10.20;91.30
55785;DHT22;41709;52.536;5.688;2022-11-28T17:01:34;10.30;91.20
55785;DHT22;41709;52.536;5.688;2022-11-28T17:04:00;10.30;91.50
55785;DHT22;41709;52.536;5.688;2022-11-28T17:06:34;10.30;91.20
55785;DHT22;41709;52.536;5.688;2022-11-28T17:09:05;10.30;91.10
55785;DHT22;41709;52.536;5.688;2022-11-28T17:11:33;10.30;91.10
55785;DHT22;41709;52.536;5.688;2022-11-28T17:14:00;10.30;91.20
55785;DHT22;41709;52.536;5.688;2022-11-28T17:16:28;10.30;91.20
55785;DHT22;41709;52.536;5.688;2022-11-28T17:18:53;10.30;91.10
55785;DHT22;41709;52.536;5.688;2022-11-28T17:21:28;10.30;91.20
55785;DHT22;41709;52.536;5.688;2022-11-28T17:23:57;10.30;91.20
55785;DHT22;41709;52.536;5.688;2022-11-28T17:26:22;10.30;91.20
55785;DHT22;41709;52.536;5.688;2022-11-28T17:28:48;10.30;91.10
55785;DHT22;41709;52.536;5.688;2022-11-28T17:31:13;10.30;91.10
55785;DHT22;41709;52.536;5.688;2022-11-28T17:33:39;10.30;91.10
55785;DHT22;41709;52.536;5.688;2022-11-28T17:36:05;10.30;91.00
55785;DHT22;41709;52.536;5.688;2022-11-28T17:38:30;10.30;91.10
55785;DHT22;41709;52.536;5.688;2022-11-28T17:40:59;10.30;91.10
55785;DHT22;41709;52.536;5.688;2022-11-28T17:43:25;10.30;91.00
55785;DHT22;41709;52.536;5.688;2022-11-28T17:45:51;10.30;91.00
55785;DHT22;41709;52.536;5.688;2022-11-28T17:48:17;10.30;90.90
55785;DHT22;41709;52.536;5.688;2022-11-28T17:50:45;10.30;90.90
55785;DHT22;41709;52.536;5.688;2022-11-28T17:53:14;10.30;90.90
55785;DHT22;41709;52.536;5.688;2022-11-28T17:55:42;10.30;91.30
55785;DHT22;41709;52.536;5.688;2022-11-28T17:58:14;10.30;91.00
55785;DHT22;41709;52.536;5.688;2022-11-28T18:00:41;10.30;90.90
55785;DHT22;41709;52.536;5.688;2022-11-28T18:03:07;10.30;91.00
55785;DHT22;41709;52.536;5.688;2022-11-28T18:05:43;10.20;90.80
55785;DHT22;41709;52.536;5.688;2022-11-28T18:08:11;10.20;90.80
55785;DHT22;41709;52.536;5.688;2022-11-28T18:10:37;10.10;90.80
55785;DHT22;41709;52.536;5.688;2022-11-28T18:13:03;10.10;91.00
55785;DHT22;41709;52.536;5.688;2022-11-28T18:15:30;10.10;91.10
55785;DHT22;41709;52.536;5.688;2022-11-28T18:17:57;10.10;91.10
55785;DHT22;41709;52.536;5.688;2022-11-28T18:20:23;10.20;91.10
55785;DHT22;41709;52.536;5.688;2022-11-28T18:22:56;10.10;91.00
55785;DHT22;41709;52.536;5.688;2022-11-28T18:25:22;10.10;90.90
55785;DHT22;41709;52.536;5.688;2022-11-28T18:27:48;10.10;91.20
55785;DHT22;41709;52.536;5.688;2022-11-28T18:30:14;10.10;90.80
55785;DHT22;41709;52.536;5.688;2022-11-28T18:32:40;10.10;90.60
55785;DHT22;41709;52.536;5.688;2022-11-28T18:35:06;10.00;90.60
55785;DHT22;41709;52.536;5.688;2022-11-28T18:37:32;10.00;90.60
55785;DHT22;41709;52.536;5.688;2022-11-28T18:39:58;9.90;90.70
55785;DHT22;41709;52.536;5.688;2022-11-28T18:42:23;9.90;90.70
55785;DHT22;41709;52.536;5.688;2022-11-28T18:44:49;9.90;90.80
55785;DHT22;41709;52.536;5.688;2022-11-28T18:47:15;10.00;90.90
55785;DHT22;41709;52.536;5.688;2022-11-28T18:49:40;9.90;90.90
55785;DHT22;41709;52.536;5.688;2022-11-28T18:52:06;9.90;90.90
55785;DHT22;41709;52.536;5.688;2022-11-28T18:54:32;10.00;90.90
55785;DHT22;41709;52.536;5.688;2022-11-28T18:56:58;9.90;90.80